createdAt,value
2022-11-24T00:00:18.578Z,8.80
2022-11-24T00:01:23.046Z,8.80
2022-11-24T00:02:25.133Z,8.80
2022-11-24T00:03:27.522Z,8.80
2022-11-24T00:04:30.432Z,8.80
2022-11-24T00:05:38.427Z,8.80
2022-11-24T00:06:40.706Z,8.80
2022-11-24T00:07:43.351Z,8.80
2022-11-24T00:08:46.591Z,8.80
2022-11-24T00:09:50.895Z,8.80
2022-11-24T00:10:53.029Z,8.80
2022-11-24T00:11:55.078Z,8.80
2022-11-24T00:12:57.087Z,8.80
2022-11-24T00:14:00.196Z,8.80
2022-11-24T00:15:02.518Z,8.80
2022-11-24T00:16:34.996Z,8.80
2022-11-24T00:17:37.175Z,8.80
2022-11-24T00:18:41.156Z,8.80
2022-11-24T00:19:45.604Z,8.80
2022-11-24T00:20:53.186Z,8.80
2022-11-24T00:21:55.297Z,8.80
2022-11-24T00:22:57.524Z,8.80
2022-11-24T00:24:00.323Z,8.80
2022-11-24T00:25:02.318Z,8.80
2022-11-24T00:26:07.215Z,8.80
2022-11-24T00:27:09.732Z,8.80
2022-11-24T00:28:11.759Z,8.80
2022-11-24T00:29:13.967Z,8.80
2022-11-24T00:30:16.407Z,8.70
2022-11-24T00:31:22.695Z,8.70
2022-11-24T00:32:25.014Z,8.70
2022-11-24T00:33:26.977Z,8.70
2022-11-24T00:34:28.953Z,8.70
2022-11-24T00:35:31.021Z,8.70
2022-11-24T00:36:35.153Z,8.60
2022-11-24T00:37:37.369Z,8.60
2022-11-24T00:38:39.634Z,8.60
2022-11-24T00:39:42.456Z,8.60
2022-11-24T00:40:46.096Z,8.60
2022-11-24T00:41:48.099Z,8.60
2022-11-24T00:42:49.957Z,8.50
2022-11-24T00:43:52.774Z,8.50
2022-11-24T00:44:54.638Z,8.50
2022-11-24T00:45:56.648Z,8.50
2022-11-24T00:46:58.877Z,8.50
2022-11-24T00:48:00.947Z,8.50
2022-11-24T00:49:03.479Z,8.50
2022-11-24T00:50:05.804Z,8.50
2022-11-24T00:51:10.052Z,8.50
2022-11-24T00:52:12.121Z,8.50
2022-11-24T00:53:14.096Z,8.40
2022-11-24T00:54:16.997Z,8.40
2022-11-24T00:55:18.870Z,8.40
2022-11-24T00:56:20.968Z,8.40
2022-11-24T00:57:22.901Z,8.30
2022-11-24T00:58:25.483Z,8.40
2022-11-24T00:59:27.403Z,8.30
2022-11-24T01:00:29.524Z,8.30
2022-11-24T01:01:31.528Z,8.30
2022-11-24T01:02:34.678Z,8.30
2022-11-24T01:03:37.637Z,8.30
2022-11-24T01:04:40.676Z,8.30
2022-11-24T01:05:43.196Z,8.30
2022-11-24T01:06:45.052Z,8.30
2022-11-24T01:07:48.837Z,8.30
2022-11-24T01:08:52.295Z,8.20
2022-11-24T01:09:54.138Z,8.20
2022-11-24T01:11:10.028Z,8.20
2022-11-24T01:12:12.177Z,8.20
2022-11-24T01:13:14.150Z,8.20
2022-11-24T01:14:16.113Z,8.20
2022-11-24T01:15:18.053Z,8.20
2022-11-24T01:16:20.740Z,8.20
2022-11-24T01:17:22.737Z,8.20
2022-11-24T01:18:24.614Z,8.20
2022-11-24T01:19:26.546Z,8.20
2022-11-24T01:20:28.618Z,8.20
2022-11-24T01:21:31.169Z,8.20
2022-11-24T01:22:34.745Z,8.20
2022-11-24T01:23:37.449Z,8.20
2022-11-24T01:24:39.618Z,8.20
2022-11-24T01:25:41.503Z,8.20
2022-11-24T01:26:43.356Z,8.20
2022-11-24T01:27:45.195Z,8.20
2022-11-24T01:28:48.020Z,8.20
2022-11-24T01:29:50.063Z,8.20
2022-11-24T01:31:03.096Z,8.20
2022-11-24T01:32:06.621Z,8.20
2022-11-24T01:33:08.924Z,8.10
2022-11-24T01:34:11.105Z,8.10
2022-11-24T01:35:15.376Z,8.10
2022-11-24T01:36:17.719Z,8.10
2022-11-24T01:37:21.502Z,8.10
2022-11-24T01:38:25.849Z,8.10
2022-11-24T01:39:28.181Z,8.20
2022-11-24T01:40:32.607Z,8.10
2022-11-24T01:41:35.667Z,8.20
2022-11-24T01:42:43.787Z,8.20
2022-11-24T01:43:46.916Z,8.20
2022-11-24T01:44:51.969Z,8.20
2022-11-24T01:45:54.976Z,8.30
2022-11-24T01:47:03.106Z,8.30
2022-11-24T01:48:13.564Z,8.30
2022-11-24T01:49:18.913Z,8.30
2022-11-24T01:50:21.012Z,8.30
2022-11-24T01:51:26.013Z,8.30
2022-11-24T01:52:40.309Z,8.40
2022-11-24T01:53:46.020Z,8.40
2022-11-24T01:54:55.209Z,8.40
2022-11-24T01:55:58.097Z,8.40
2022-11-24T01:57:13.758Z,8.50
2022-11-24T01:58:21.305Z,8.50
2022-11-24T01:59:26.021Z,8.50
2022-11-24T02:00:27.984Z,8.50
2022-11-24T02:01:31.665Z,8.50
2022-11-24T02:02:33.778Z,8.60
2022-11-24T02:03:42.029Z,8.60
2022-11-24T02:04:46.022Z,8.60
2022-11-24T02:05:51.215Z,8.60
2022-11-24T02:06:57.386Z,8.70
2022-11-24T02:08:02.007Z,8.70
2022-11-24T02:09:11.594Z,8.70
2022-11-24T02:10:16.248Z,8.70
2022-11-24T02:11:21.368Z,8.70
2022-11-24T02:12:26.825Z,8.80
2022-11-24T02:13:31.058Z,8.80
2022-11-24T02:14:36.633Z,8.80
2022-11-24T02:15:38.557Z,8.80
2022-11-24T02:16:42.855Z,8.80
2022-11-24T02:17:44.729Z,8.80
2022-11-24T02:18:47.297Z,8.90
2022-11-24T02:20:01.522Z,8.90
2022-11-24T02:21:06.999Z,8.90
2022-11-24T02:22:50.096Z,8.90
2022-11-24T02:24:01.212Z,8.90
2022-11-24T02:25:29.625Z,8.90
2022-11-24T02:26:41.376Z,8.90
2022-11-24T02:27:48.193Z,8.90
2022-11-24T02:28:53.062Z,8.90
2022-11-24T02:29:55.065Z,8.90
2022-11-24T02:30:58.414Z,8.90
2022-11-24T02:32:06.443Z,8.90
2022-11-24T02:33:11.219Z,8.90
2022-11-24T02:34:13.218Z,8.90
2022-11-24T02:35:15.323Z,9.00
2022-11-24T02:36:17.453Z,8.90
2022-11-24T02:37:19.418Z,9.00
2022-11-24T02:38:30.313Z,9.00
2022-11-24T02:39:32.213Z,8.90
2022-11-24T02:40:34.835Z,9.00
2022-11-24T02:41:37.566Z,9.00
2022-11-24T02:42:46.764Z,9.00
2022-11-24T02:43:53.255Z,9.00
2022-11-24T02:44:59.283Z,9.00
2022-11-24T02:46:01.296Z,9.00
2022-11-24T02:47:11.437Z,9.00
2022-11-24T02:48:15.619Z,9.00
2022-11-24T02:49:17.909Z,9.00
2022-11-24T02:50:21.429Z,9.00
2022-11-24T02:51:23.855Z,9.00
2022-11-24T02:52:26.724Z,9.00
2022-11-24T02:53:28.581Z,9.00
2022-11-24T02:54:30.558Z,9.00
2022-11-24T02:55:33.053Z,9.00
2022-11-24T02:56:35.150Z,9.00
2022-11-24T02:57:38.287Z,9.00
2022-11-24T02:58:40.675Z,9.10
2022-11-24T02:59:44.389Z,9.10
2022-11-24T03:00:46.646Z,9.10
2022-11-24T03:01:48.669Z,9.10
2022-11-24T03:02:50.820Z,9.10
2022-11-24T03:03:53.242Z,9.10
2022-11-24T03:04:55.174Z,9.10
2022-11-24T03:05:57.548Z,9.10
2022-11-24T03:06:59.554Z,9.10
2022-11-24T03:08:01.475Z,9.10
2022-11-24T03:09:04.049Z,9.10
2022-11-24T03:10:07.003Z,9.20
2022-11-24T03:11:08.953Z,9.20
2022-11-24T03:12:10.862Z,9.20
2022-11-24T03:13:13.736Z,9.20
2022-11-24T03:14:15.661Z,9.20
2022-11-24T03:15:17.652Z,9.20
2022-11-24T03:16:19.690Z,9.20
2022-11-24T03:17:21.631Z,9.20
2022-11-24T03:18:24.168Z,9.20
2022-11-24T03:19:26.059Z,9.20
2022-11-24T03:20:29.575Z,9.20
2022-11-24T03:21:31.474Z,9.20
2022-11-24T03:22:33.462Z,9.20
2022-11-24T03:23:35.536Z,9.20
2022-11-24T03:24:38.773Z,9.20
2022-11-24T03:25:40.915Z,9.20
2022-11-24T03:26:42.814Z,9.20
2022-11-24T03:27:45.360Z,9.20
2022-11-24T03:28:49.453Z,9.20
2022-11-24T03:29:51.281Z,9.20
2022-11-24T03:30:53.189Z,9.20
2022-11-24T03:31:55.457Z,9.20
2022-11-24T03:32:57.746Z,9.20
2022-11-24T03:34:00.511Z,9.20
2022-11-24T03:35:02.903Z,9.20
2022-11-24T03:36:06.192Z,9.20
2022-11-24T03:37:08.107Z,9.20
2022-11-24T03:38:09.967Z,9.20
2022-11-24T03:39:11.991Z,9.20
2022-11-24T03:40:14.259Z,9.20
2022-11-24T03:41:17.553Z,9.20
2022-11-24T03:42:19.433Z,9.20
2022-11-24T03:43:21.492Z,9.20
2022-11-24T03:44:23.423Z,9.20
2022-11-24T03:46:47.441Z,9.20
2022-11-24T03:47:52.413Z,9.20
2022-11-24T03:48:54.305Z,9.20
2022-11-24T03:49:56.263Z,9.20
2022-11-24T03:51:01.018Z,9.20
2022-11-24T03:52:08.074Z,9.20
2022-11-24T03:53:11.955Z,9.20
2022-11-24T03:54:13.953Z,9.20
2022-11-24T03:55:15.916Z,9.20
2022-11-24T03:56:17.901Z,9.20
2022-11-24T03:57:20.382Z,9.20
2022-11-24T03:58:23.156Z,9.10
2022-11-24T03:59:25.327Z,9.10
2022-11-24T04:00:28.322Z,9.20
2022-11-24T04:01:30.395Z,9.10
2022-11-24T04:02:33.390Z,9.10
2022-11-24T04:03:35.341Z,9.10
2022-11-24T04:04:39.747Z,9.10
2022-11-24T04:05:42.476Z,9.10
2022-11-24T04:06:45.963Z,9.10
2022-11-24T04:07:48.640Z,9.10
2022-11-24T04:08:50.799Z,9.20
2022-11-24T04:09:52.764Z,9.10
2022-11-24T04:10:54.974Z,9.10
2022-11-24T04:12:15.365Z,9.20
2022-11-24T04:13:18.775Z,9.10
2022-11-24T04:14:21.000Z,9.10
2022-11-24T04:15:22.847Z,9.20
2022-11-24T04:16:25.176Z,9.20
2022-11-24T04:17:28.182Z,9.10
2022-11-24T04:18:30.043Z,9.10
2022-11-24T04:19:33.233Z,9.10
2022-11-24T04:20:35.454Z,9.20
2022-11-24T04:21:37.236Z,9.20
2022-11-24T04:22:40.211Z,9.10
2022-11-24T04:23:42.120Z,9.10
2022-11-24T04:24:44.302Z,9.10
2022-11-24T04:25:46.302Z,9.10
2022-11-24T04:26:48.399Z,9.20
2022-11-24T04:27:55.093Z,9.10
2022-11-24T04:28:56.916Z,9.10
2022-11-24T04:29:58.706Z,9.10
2022-11-24T04:31:05.882Z,9.20
2022-11-24T04:32:08.928Z,9.10
2022-11-24T04:33:11.091Z,9.20
2022-11-24T04:34:12.940Z,9.20
2022-11-24T04:35:15.186Z,9.10
2022-11-24T04:36:17.342Z,9.10
2022-11-24T04:37:19.215Z,9.10
2022-11-24T04:39:23.027Z,9.20
2022-11-24T04:39:42.846Z,9.10
2022-11-24T04:40:45.368Z,9.10
2022-11-24T04:41:47.594Z,9.10
2022-11-24T04:42:54.495Z,9.20
2022-11-24T04:43:56.386Z,9.20
2022-11-24T04:44:58.198Z,9.20
2022-11-24T04:46:01.321Z,9.20
2022-11-24T04:47:05.474Z,9.20
2022-11-24T04:48:08.417Z,9.20
2022-11-24T04:49:12.337Z,9.20
2022-11-24T04:50:15.592Z,9.20
2022-11-24T04:51:18.177Z,9.20
2022-11-24T04:52:22.905Z,9.20
2022-11-24T04:53:24.684Z,9.20
2022-11-24T04:54:26.522Z,9.20
2022-11-24T04:55:29.549Z,9.20
2022-11-24T04:56:31.398Z,9.20
2022-11-24T04:57:33.290Z,9.20
2022-11-24T04:58:35.422Z,9.20
2022-11-24T04:59:37.313Z,9.20
2022-11-24T05:00:39.679Z,9.20
2022-11-24T05:01:46.132Z,9.20
2022-11-24T05:02:48.369Z,9.20
2022-11-24T05:03:52.957Z,9.20
2022-11-24T05:04:55.243Z,9.10
2022-11-24T05:05:59.669Z,9.10
2022-11-24T05:07:01.695Z,9.10
2022-11-24T05:08:03.827Z,9.10
2022-11-24T05:09:07.095Z,9.10
2022-11-24T05:10:27.859Z,9.10
2022-11-24T05:11:29.685Z,9.10
2022-11-24T05:12:31.754Z,9.00
2022-11-24T05:13:35.082Z,9.00
2022-11-24T05:14:36.984Z,9.00
2022-11-24T05:15:41.067Z,9.00
2022-11-24T05:16:44.319Z,9.00
2022-11-24T05:17:46.605Z,9.00
2022-11-24T05:18:48.505Z,9.00
2022-11-24T05:19:50.337Z,9.00
2022-11-24T05:20:52.088Z,9.00
2022-11-24T05:21:54.356Z,8.90
2022-11-24T05:22:56.342Z,8.90
2022-11-24T05:23:58.288Z,8.90
2022-11-24T05:25:00.488Z,8.90
2022-11-24T05:26:03.119Z,8.90
2022-11-24T05:27:04.981Z,8.90
2022-11-24T05:28:12.770Z,8.90
2022-11-24T05:29:14.656Z,8.90
2022-11-24T05:30:16.873Z,8.90
2022-11-24T05:31:18.735Z,8.90
2022-11-24T05:32:20.535Z,8.80
2022-11-24T05:33:24.554Z,8.80
2022-11-24T05:34:26.378Z,8.80
2022-11-24T05:35:28.180Z,8.80
2022-11-24T05:36:48.615Z,8.80
2022-11-24T05:37:50.721Z,8.80
2022-11-24T05:38:53.975Z,8.80
2022-11-24T05:39:55.799Z,8.80
2022-11-24T05:41:05.506Z,8.70
2022-11-24T05:42:27.153Z,8.80
2022-11-24T05:43:29.269Z,8.70
2022-11-24T05:44:31.292Z,8.70
2022-11-24T05:45:33.349Z,8.70
2022-11-24T05:46:35.815Z,8.70
2022-11-24T05:47:38.189Z,8.70
2022-11-24T05:48:39.986Z,8.70
2022-11-24T05:49:41.999Z,8.70
2022-11-24T05:50:44.261Z,8.70
2022-11-24T05:51:46.449Z,8.70
2022-11-24T05:52:49.373Z,8.70
2022-11-24T05:53:51.103Z,8.70
2022-11-24T05:54:53.097Z,8.70
2022-11-24T05:56:02.012Z,8.70
2022-11-24T05:57:03.995Z,8.70
2022-11-24T05:58:07.900Z,8.70
2022-11-24T05:59:10.293Z,8.80
2022-11-24T06:00:12.857Z,8.80
2022-11-24T06:01:14.976Z,8.80
2022-11-24T06:02:17.499Z,8.80
2022-11-24T06:03:19.846Z,8.80
2022-11-24T06:04:21.746Z,8.80
2022-11-24T06:05:26.124Z,8.80
2022-11-24T06:06:29.136Z,8.80
2022-11-24T06:07:31.396Z,8.80
2022-11-24T06:08:34.074Z,8.80
2022-11-24T06:09:40.001Z,8.80
2022-11-24T06:10:42.267Z,8.80
2022-11-24T06:11:44.519Z,8.80
2022-11-24T06:12:46.725Z,8.80
2022-11-24T06:13:48.760Z,8.80
2022-11-24T06:14:50.865Z,8.80
2022-11-24T06:15:52.633Z,8.80
2022-11-24T06:16:54.495Z,8.80
2022-11-24T06:17:56.599Z,8.80
2022-11-24T06:18:58.426Z,8.80
2022-11-24T06:20:02.243Z,8.80
2022-11-24T06:21:12.138Z,8.80
2022-11-24T06:22:14.061Z,8.80
2022-11-24T06:23:17.327Z,8.80
2022-11-24T06:24:19.110Z,8.80
2022-11-24T06:25:20.933Z,8.80
2022-11-24T06:26:22.696Z,8.80
2022-11-24T06:27:24.647Z,8.80
2022-11-24T06:28:27.322Z,8.80
2022-11-24T06:29:32.073Z,8.80
2022-11-24T06:30:34.871Z,8.80
2022-11-24T06:31:37.283Z,8.80
2022-11-24T06:32:42.632Z,8.80
2022-11-24T06:33:47.031Z,8.80
2022-11-24T06:34:48.873Z,8.80
2022-11-24T06:35:51.299Z,8.80
2022-11-24T06:36:53.195Z,8.80
2022-11-24T06:37:54.971Z,8.80
2022-11-24T06:38:56.858Z,8.80
2022-11-24T06:40:00.061Z,8.80
2022-11-24T06:41:07.159Z,8.80
2022-11-24T06:42:09.391Z,8.70
2022-11-24T06:43:11.356Z,8.80
2022-11-24T06:44:13.160Z,8.80
2022-11-24T06:45:16.176Z,8.80
2022-11-24T06:46:19.294Z,8.80
2022-11-24T06:47:22.360Z,8.80
2022-11-24T06:48:25.545Z,8.80
2022-11-24T06:49:29.072Z,8.80
2022-11-24T06:50:33.741Z,8.80
2022-11-24T06:51:38.772Z,8.70
2022-11-24T06:52:40.695Z,8.80
2022-11-24T06:53:42.441Z,8.80
2022-11-24T06:54:44.213Z,8.80
2022-11-24T06:55:47.291Z,8.80
2022-11-24T06:56:49.237Z,8.80
2022-11-24T06:57:50.999Z,8.80
2022-11-24T06:58:53.710Z,8.80
2022-11-24T06:59:55.520Z,8.80
2022-11-24T07:00:57.315Z,8.80
2022-11-24T07:01:59.037Z,8.80
2022-11-24T07:03:01.254Z,8.80
2022-11-24T07:04:03.162Z,8.80
2022-11-24T07:05:05.282Z,8.80
2022-11-24T07:06:07.426Z,8.80
2022-11-24T07:07:09.247Z,8.80
2022-11-24T07:08:16.291Z,8.80
2022-11-24T07:09:20.859Z,8.80
2022-11-24T07:10:22.710Z,8.80
2022-11-24T07:11:26.283Z,8.80
2022-11-24T07:12:29.252Z,8.80
2022-11-24T07:13:31.224Z,8.80
2022-11-24T07:14:33.754Z,8.80
2022-11-24T07:15:38.046Z,8.80
2022-11-24T07:16:41.698Z,8.80
2022-11-24T07:17:43.791Z,8.80
2022-11-24T07:18:49.263Z,8.80
2022-11-24T07:19:51.027Z,8.80
2022-11-24T07:20:52.869Z,8.80
2022-11-24T07:21:54.601Z,8.80
2022-11-24T07:22:57.402Z,8.90
2022-11-24T07:23:59.526Z,8.90
2022-11-24T07:25:01.868Z,8.80
2022-11-24T07:26:06.970Z,8.90
2022-11-24T07:27:09.078Z,8.80
2022-11-24T07:28:10.975Z,8.80
2022-11-24T07:29:12.869Z,8.80
2022-11-24T07:30:14.810Z,8.90
2022-11-24T07:31:20.139Z,8.90
2022-11-24T07:32:22.070Z,8.90
2022-11-24T07:33:27.821Z,8.90
2022-11-24T07:34:29.562Z,8.90
2022-11-24T07:35:31.351Z,8.90
2022-11-24T07:36:33.184Z,8.90
2022-11-24T07:37:34.895Z,8.90
2022-11-24T07:38:36.903Z,8.90
2022-11-24T07:39:38.692Z,8.90
2022-11-24T07:40:40.583Z,8.90
2022-11-24T07:41:42.705Z,8.90
2022-11-24T07:42:44.434Z,8.90
2022-11-24T07:43:46.649Z,8.90
2022-11-24T07:44:48.962Z,8.90
2022-11-24T07:45:54.641Z,8.90
2022-11-24T07:46:56.573Z,8.90
2022-11-24T07:48:20.925Z,8.90
2022-11-24T07:49:25.169Z,8.90
2022-11-24T07:50:27.122Z,8.90
2022-11-24T07:51:29.005Z,8.90
2022-11-24T07:52:30.760Z,8.90
2022-11-24T07:53:33.589Z,8.80
2022-11-24T07:54:35.721Z,8.80
2022-11-24T07:55:37.698Z,8.80
2022-11-24T07:56:39.505Z,8.80
2022-11-24T07:57:41.387Z,8.80
2022-11-24T07:58:45.955Z,8.80
2022-11-24T07:59:50.277Z,8.80
2022-11-24T08:00:51.991Z,8.80
2022-11-24T08:01:53.761Z,8.80
2022-11-24T08:02:55.662Z,8.80
2022-11-24T08:03:57.700Z,8.80
2022-11-24T08:04:59.670Z,8.80
2022-11-24T08:06:39.826Z,8.80
2022-11-24T08:07:23.435Z,8.80
2022-11-24T08:08:26.191Z,8.80
2022-11-24T08:09:28.260Z,8.80
2022-11-24T08:10:30.136Z,8.80
2022-11-24T08:11:32.938Z,8.80
2022-11-24T08:12:34.775Z,8.80
2022-11-24T08:13:37.452Z,8.80
2022-11-24T08:14:39.162Z,8.80
2022-11-24T08:15:40.997Z,8.80
2022-11-24T08:16:42.787Z,8.80
2022-11-24T08:17:44.675Z,8.80
2022-11-24T08:18:56.749Z,8.80
2022-11-24T08:19:58.641Z,8.80
2022-11-24T08:21:00.571Z,8.80
2022-11-24T08:22:02.369Z,8.80
2022-11-24T08:23:04.704Z,8.80
2022-11-24T08:24:07.232Z,8.80
2022-11-24T08:25:10.028Z,8.80
2022-11-24T08:26:16.688Z,8.80
2022-11-24T08:27:19.548Z,8.80
2022-11-24T08:28:21.353Z,8.80
2022-11-24T08:29:23.187Z,8.80
2022-11-24T08:30:25.229Z,8.80
2022-11-24T08:31:33.410Z,8.80
2022-11-24T08:32:35.663Z,8.80
2022-11-24T08:33:37.547Z,8.80
2022-11-24T08:34:39.428Z,8.80
2022-11-24T08:35:41.251Z,8.80
2022-11-24T08:36:43.044Z,8.80
2022-11-24T08:37:46.505Z,8.80
2022-11-24T08:38:54.147Z,8.80
2022-11-24T08:39:55.905Z,8.80
2022-11-24T08:41:06.529Z,8.80
2022-11-24T08:42:08.678Z,8.90
2022-11-24T08:43:10.653Z,8.90
2022-11-24T08:44:15.818Z,8.90
2022-11-24T08:45:21.420Z,8.90
2022-11-24T08:46:24.460Z,8.90
2022-11-24T08:47:26.296Z,8.90
2022-11-24T08:48:29.169Z,9.00
2022-11-24T08:49:31.089Z,8.90
2022-11-24T08:50:36.160Z,9.00
2022-11-24T08:51:38.152Z,9.00
2022-11-24T08:52:40.000Z,9.00
2022-11-24T08:53:42.693Z,9.00
2022-11-24T08:54:44.815Z,9.10
2022-11-24T08:55:46.677Z,9.10
2022-11-24T08:56:50.777Z,9.10
2022-11-24T08:57:52.720Z,9.10
2022-11-24T08:58:55.679Z,9.10
2022-11-24T08:59:57.502Z,9.10
2022-11-24T09:01:13.805Z,9.20
2022-11-24T09:02:15.688Z,9.20
2022-11-24T09:03:17.471Z,9.20
2022-11-24T09:04:19.323Z,9.20
2022-11-24T09:05:50.040Z,9.30
2022-11-24T09:06:43.011Z,9.30
2022-11-24T09:07:44.850Z,9.40
2022-11-24T09:08:46.744Z,9.40
2022-11-24T09:09:48.990Z,9.40
2022-11-24T09:10:51.468Z,9.40
2022-11-24T09:11:53.197Z,9.40
2022-11-24T09:12:55.118Z,9.40
2022-11-24T09:13:56.921Z,9.40
2022-11-24T09:14:58.662Z,9.40
2022-11-24T09:16:12.611Z,9.40
2022-11-24T09:17:14.957Z,9.40
2022-11-24T09:18:16.745Z,9.40
2022-11-24T09:19:18.506Z,9.40
2022-11-24T09:20:21.440Z,9.40
2022-11-24T09:21:24.049Z,9.50
2022-11-24T09:22:25.822Z,9.60
2022-11-24T09:23:27.593Z,9.80
2022-11-24T09:24:29.474Z,9.90
2022-11-24T09:25:31.269Z,10.00
2022-11-24T09:26:36.279Z,10.00
2022-11-24T09:27:38.246Z,10.00
2022-11-24T09:28:40.775Z,10.00
2022-11-24T09:29:42.555Z,9.90
2022-11-24T09:30:44.414Z,9.90
2022-11-24T09:31:46.262Z,9.80
2022-11-24T09:32:48.026Z,9.80
2022-11-24T09:33:49.979Z,9.80
2022-11-24T09:34:51.977Z,9.80
2022-11-24T09:35:53.683Z,9.80
2022-11-24T09:36:55.684Z,9.80
2022-11-24T09:37:57.536Z,9.80
2022-11-24T09:38:59.985Z,9.80
2022-11-24T09:40:01.847Z,9.80
2022-11-24T09:41:30.684Z,9.90
2022-11-24T09:42:46.917Z,9.80
2022-11-24T09:44:15.007Z,9.80
2022-11-24T09:46:03.351Z,9.80
2022-11-24T09:47:08.355Z,9.80
2022-11-24T09:48:12.480Z,9.80
2022-11-24T09:49:27.655Z,9.80
2022-11-24T09:50:34.943Z,9.90
2022-11-24T09:51:37.846Z,9.90
2022-11-24T09:53:03.565Z,10.00
2022-11-24T09:54:20.747Z,10.10
2022-11-24T09:55:31.658Z,10.20
2022-11-24T09:56:38.776Z,10.30
2022-11-24T09:57:43.903Z,10.50
2022-11-24T09:58:54.434Z,10.70
2022-11-24T10:00:02.339Z,10.90
2022-11-24T10:01:35.086Z,11.10
2022-11-24T10:02:36.939Z,11.10
2022-11-24T10:03:45.210Z,11.10
2022-11-24T10:04:47.711Z,11.10
2022-11-24T10:05:51.293Z,11.10
2022-11-24T10:07:10.169Z,11.10
2022-11-24T10:08:23.619Z,11.00
2022-11-24T10:09:49.739Z,11.00
2022-11-24T10:10:59.480Z,10.90
2022-11-24T10:12:22.286Z,10.90
2022-11-24T10:13:46.242Z,10.90
2022-11-24T10:14:55.528Z,10.90
2022-11-24T10:16:04.041Z,10.90
2022-11-24T10:17:15.540Z,10.80
2022-11-24T10:18:35.394Z,10.90
2022-11-24T10:19:55.871Z,11.00
2022-11-24T10:21:41.563Z,11.20
2022-11-24T10:22:44.093Z,11.30
2022-11-24T10:24:00.735Z,11.40
2022-11-24T10:25:09.934Z,11.60
2022-11-24T10:26:37.942Z,11.60
2022-11-24T10:27:44.652Z,11.80
2022-11-24T10:28:54.733Z,11.80
2022-11-24T10:29:57.229Z,11.80
2022-11-24T10:31:30.766Z,11.80
2022-11-24T10:32:37.630Z,11.80
2022-11-24T10:33:40.240Z,11.70
2022-11-24T10:34:44.839Z,11.70
2022-11-24T10:35:57.100Z,11.60
2022-11-24T10:37:06.230Z,11.60
2022-11-24T10:38:20.092Z,11.60
2022-11-24T10:39:39.296Z,11.50
2022-11-24T10:40:57.079Z,11.40
2022-11-24T10:42:07.533Z,11.30
2022-11-24T10:43:12.672Z,11.30
2022-11-24T10:44:17.530Z,11.20
2022-11-24T10:45:22.360Z,11.10
2022-11-24T10:46:27.135Z,11.10
2022-11-24T10:47:30.661Z,11.10
2022-11-24T10:48:42.319Z,11.10
2022-11-24T10:50:13.956Z,11.10
2022-11-24T10:51:37.958Z,11.10
2022-11-24T10:52:56.811Z,11.10
2022-11-24T10:54:06.088Z,11.10
2022-11-24T10:55:10.541Z,11.00
2022-11-24T10:56:12.377Z,11.00
2022-11-24T10:57:33.786Z,11.00
2022-11-24T10:58:40.420Z,11.10
2022-11-24T10:59:42.286Z,11.10
2022-11-24T11:00:44.067Z,11.10
2022-11-24T11:01:46.677Z,11.10
2022-11-24T11:02:50.356Z,11.10
2022-11-24T11:03:55.517Z,11.20
2022-11-24T11:04:57.516Z,11.20
2022-11-24T11:06:20.422Z,11.30
2022-11-24T11:07:25.551Z,11.30
2022-11-24T11:08:30.587Z,11.40
2022-11-24T11:09:32.690Z,11.40
2022-11-24T11:10:34.869Z,11.40
2022-11-24T11:11:42.536Z,11.40
2022-11-24T11:12:45.159Z,11.40
2022-11-24T11:14:03.008Z,11.40
2022-11-24T11:15:28.051Z,11.40
2022-11-24T11:16:39.139Z,11.40
2022-11-24T11:17:45.008Z,11.30
2022-11-24T11:18:49.373Z,11.30
2022-11-24T11:19:58.660Z,11.30
2022-11-24T11:21:05.268Z,11.20
2022-11-24T11:22:12.877Z,11.20
2022-11-24T11:23:21.290Z,11.20
2022-11-24T11:24:23.140Z,11.20
2022-11-24T11:25:32.425Z,11.10
2022-11-24T11:26:37.375Z,11.10
2022-11-24T11:27:40.922Z,11.10
2022-11-24T11:28:56.566Z,11.10
2022-11-24T11:34:48.016Z,10.90
2022-11-24T11:35:54.427Z,10.90
2022-11-24T11:36:57.252Z,10.90
2022-11-24T11:38:04.438Z,10.90
2022-11-24T11:39:06.356Z,10.90
2022-11-24T11:40:16.984Z,10.90
2022-11-24T11:41:32.425Z,11.00
2022-11-24T11:44:24.349Z,10.90
2022-11-24T11:45:35.721Z,10.90
2022-11-24T11:46:37.811Z,10.90
2022-11-24T11:48:05.561Z,10.90
2022-11-24T11:49:11.624Z,10.90
2022-11-24T11:50:16.244Z,10.90
2022-11-24T11:51:50.917Z,10.90
2022-11-24T11:53:26.119Z,10.90
2022-11-24T11:54:51.488Z,10.90
2022-11-24T11:56:06.764Z,10.90
2022-11-24T11:57:39.212Z,10.90
2022-11-24T11:58:54.127Z,10.90
2022-11-24T11:59:55.987Z,10.90
2022-11-24T12:01:24.022Z,10.90
2022-11-24T12:03:08.508Z,10.90
2022-11-24T12:04:20.867Z,10.90
2022-11-24T12:05:46.330Z,11.00
2022-11-24T12:07:28.967Z,10.90
2022-11-24T12:09:20.234Z,11.00
2022-11-24T12:10:22.808Z,10.90
2022-11-24T12:11:39.303Z,10.90
2022-11-24T12:13:00.955Z,10.90
2022-11-24T12:14:19.692Z,10.90
2022-11-24T12:15:50.288Z,11.00
2022-11-24T12:17:27.385Z,11.00
2022-11-24T12:18:58.482Z,11.00
2022-11-24T12:20:20.257Z,11.00
2022-11-24T12:21:51.285Z,11.00
2022-11-24T12:23:00.157Z,11.00
2022-11-24T12:24:28.699Z,11.00
2022-11-24T12:25:42.318Z,11.00
2022-11-24T12:26:55.372Z,11.00
2022-11-24T12:28:19.837Z,11.00
2022-11-24T12:29:57.118Z,11.00
2022-11-24T12:31:04.783Z,11.00
2022-11-24T12:32:43.388Z,11.00
2022-11-24T12:34:17.279Z,11.00
2022-11-24T12:35:37.665Z,11.00
2022-11-24T12:36:45.443Z,11.00
2022-11-24T12:38:21.162Z,11.00
2022-11-24T12:39:34.479Z,10.90
2022-11-24T12:41:40.513Z,10.90
2022-11-24T12:42:54.515Z,10.90
2022-11-24T12:44:00.640Z,11.00
2022-11-24T12:45:26.029Z,11.00
2022-11-24T12:46:46.118Z,11.00
2022-11-24T12:47:53.583Z,11.00
2022-11-24T12:49:04.770Z,11.00
2022-11-24T12:50:28.659Z,11.10
2022-11-24T12:51:40.274Z,11.10
2022-11-24T12:53:00.942Z,11.10
2022-11-24T12:54:07.326Z,11.10
2022-11-24T12:55:20.891Z,11.20
2022-11-24T12:56:46.925Z,11.20
2022-11-24T12:58:14.285Z,11.20
2022-11-24T12:59:35.932Z,11.20
2022-11-24T13:01:11.561Z,11.20
2022-11-24T13:02:53.841Z,11.30
2022-11-24T13:04:08.637Z,11.30
2022-11-24T13:05:37.132Z,11.30
2022-11-24T13:07:16.274Z,11.30
2022-11-24T13:08:18.727Z,11.30
2022-11-24T13:09:20.971Z,11.30
2022-11-24T13:10:53.593Z,11.30
2022-11-24T13:11:50.242Z,11.20
2022-11-24T13:13:02.818Z,11.30
2022-11-24T13:14:25.416Z,11.30
2022-11-24T13:15:45.508Z,11.30
2022-11-24T13:18:42.335Z,11.20
2022-11-24T13:19:44.397Z,11.20
2022-11-24T13:20:46.350Z,11.20
2022-11-24T13:21:58.523Z,11.30
2022-11-24T13:23:05.211Z,11.20
2022-11-24T13:24:53.676Z,11.30
2022-11-24T13:26:27.214Z,11.30
2022-11-24T13:27:40.400Z,11.20
2022-11-24T13:29:23.762Z,11.20
2022-11-24T13:30:35.532Z,11.20
2022-11-24T13:31:37.403Z,11.30
2022-11-24T13:32:39.275Z,11.30
2022-11-24T13:33:41.086Z,11.30
2022-11-24T13:34:43.086Z,11.30
2022-11-24T13:36:03.087Z,11.30
2022-11-24T13:37:29.001Z,11.30
2022-11-24T13:38:46.605Z,11.30
2022-11-24T13:39:52.548Z,11.30
2022-11-24T13:41:20.863Z,11.20
2022-11-24T13:42:42.157Z,11.20
2022-11-24T13:43:58.284Z,11.20
2022-11-24T13:45:02.002Z,11.30
2022-11-24T13:46:04.382Z,11.30
2022-11-24T13:47:39.987Z,11.30
2022-11-24T13:48:44.903Z,11.30
2022-11-24T13:49:46.837Z,11.20
2022-11-24T13:50:52.014Z,11.20
2022-11-24T13:51:57.415Z,11.20
2022-11-24T13:53:25.514Z,11.20
2022-11-24T13:54:28.780Z,11.20
2022-11-24T13:55:35.181Z,11.20
2022-11-24T13:56:37.145Z,11.20
2022-11-24T13:57:44.819Z,11.20
2022-11-24T13:58:50.544Z,11.20
2022-11-24T14:00:01.098Z,11.20
2022-11-24T14:01:26.585Z,11.20
2022-11-24T14:02:31.386Z,11.20
2022-11-24T14:03:34.925Z,11.20
2022-11-24T14:04:39.664Z,11.20
2022-11-24T14:05:52.675Z,11.20
2022-11-24T14:07:01.101Z,11.20
2022-11-24T14:08:18.181Z,11.20
2022-11-24T14:09:41.517Z,11.30
2022-11-24T14:10:43.396Z,11.30
2022-11-24T14:11:54.991Z,11.30
2022-11-24T14:13:17.098Z,11.30
2022-11-24T14:14:21.201Z,11.30
2022-11-24T14:15:34.275Z,11.30
2022-11-24T14:16:38.569Z,11.30
2022-11-24T14:17:40.881Z,11.30
2022-11-24T14:18:45.711Z,11.30
2022-11-24T14:19:49.711Z,11.30
2022-11-24T14:20:51.527Z,11.30
2022-11-24T14:21:53.714Z,11.30
2022-11-24T14:22:55.601Z,11.30
2022-11-24T14:23:59.092Z,11.30
2022-11-24T14:25:02.454Z,11.20
2022-11-24T14:26:04.307Z,11.20
2022-11-24T14:27:06.101Z,11.10
2022-11-24T14:28:33.715Z,11.10
2022-11-24T14:29:35.579Z,11.10
2022-11-24T14:30:37.951Z,11.00
2022-11-24T14:31:40.398Z,11.00
2022-11-24T14:32:57.192Z,10.90
2022-11-24T14:34:16.220Z,10.90
2022-11-24T14:35:28.168Z,10.90
2022-11-24T14:36:33.005Z,10.80
2022-11-24T14:37:36.067Z,10.80
2022-11-24T14:38:37.896Z,10.70
2022-11-24T14:39:42.897Z,10.70
2022-11-24T14:40:53.787Z,10.70
2022-11-24T14:42:04.758Z,10.70
2022-11-24T14:43:33.016Z,10.70
2022-11-24T14:45:12.343Z,10.60
2022-11-24T14:46:19.395Z,10.60
2022-11-24T14:47:36.351Z,10.50
2022-11-24T14:48:40.216Z,10.50
2022-11-24T14:49:43.355Z,10.50